Time;durP1;ratioP1;P1;durP2;ratioP2;P2;SDS_P1;SDS_P2;PMS_P1;PMS_P2;Temp;Humidity;BMP_temperature;BMP_pressure;BME280_temperature;BME280_humidity;BME280_pressure;Samples;Min_cycle;Max_cycle;Signal;HPM_P1;HPM_P2
2022/03/30 00:00:49;;;;;;;26.73;14.27;;;;;;;10.32;59.21;98640.91;5025692;28;20241;-88
2022/03/30 00:03:14;;;;;;;28.30;15.20;;;;;;;9.32;58.67;98458.09;5029058;28;20200;-89
2022/03/30 00:05:39;;;;;;;25.53;13.50;;;;;;;10.38;59.07;98654.59;5047183;28;20162;-87
2022/03/30 00:08:06;;;;;;;24.07;13.73;;;;;;;11.27;58.88;98799.25;5035092;28;20204;-90
2022/03/30 00:10:32;;;;;;;30.90;13.73;;;;;;;9.24;59.06;98436.78;5017337;28;20166;-89
2022/03/30 00:12:58;;;;;;;26.03;13.73;;;;;;;11.29;59.34;98793.38;5033711;28;20162;-89
2022/03/30 00:15:25;;;;;;;23.37;13.20;;;;;;;8.09;59.51;98284.81;5018271;28;20292;-89
2022/03/30 00:17:51;;;;;;;28.70;14.10;;;;;;;7.58;59.30;98208.22;5034749;28;20265;-89
2022/03/30 00:20:17;;;;;;;23.13;13.10;;;;;;;11.12;59.26;98825.78;5035020;28;20169;-90
2022/03/30 00:22:42;;;;;;;27.37;13.80;;;;;;;9.29;59.74;98536.28;5015792;28;20631;-90
2022/03/30 00:25:10;;;;;;;28.73;15.97;;;;;;;10.72;59.67;98797.44;5034189;28;20206;-90
2022/03/30 00:27:36;;;;;;;29.33;15.47;;;;;;;9.91;59.84;98675.78;5034600;28;20166;-88
2022/03/30 00:30:03;;;;;;;34.93;16.93;;;;;;;9.97;59.92;98735.81;5039297;28;20174;-88
2022/03/30 00:32:29;;;;;;;32.93;16.57;;;;;;;9.90;60.51;98742.31;5035768;28;20161;-90
2022/03/30 00:34:54;;;;;;;30.87;17.03;;;;;;;9.70;60.77;98745.78;5026088;28;20642;-91
2022/03/30 00:37:20;;;;;;;32.03;18.13;;;;;;;7.85;61.94;98447.72;5035955;28;20237;-90
2022/03/30 00:39:45;;;;;;;33.80;18.00;;;;;;;8.21;61.98;98526.41;5036710;28;20604;-89
2022/03/30 00:42:19;;;;;;;34.23;17.87;;;;;;;8.24;62.43;98537.44;5056792;28;20169;-92
2022/03/30 00:44:44;;;;;;;34.07;18.23;;;;;;;8.02;62.70;98506.31;5054869;28;20193;-89
2022/03/30 00:47:18;;;;;;;32.93;18.00;;;;;;;9.55;64.64;98787.31;5058883;28;20164;-89
2022/03/30 00:49:43;;;;;;;35.47;18.40;;;;;;;9.57;64.24;98798.34;5068896;28;20224;-88
2022/03/30 00:52:09;;;;;;;34.80;17.87;;;;;;;7.21;63.63;98405.66;5054565;28;20180;-88
2022/03/30 00:54:36;;;;;;;36.47;17.33;;;;;;;8.85;64.00;98674.38;5043984;28;20161;-90
2022/03/30 00:57:04;;;;;;;34.63;18.07;;;;;;;8.78;64.29;98682.53;5054043;28;20183;-88
2022/03/30 00:59:30;;;;;;;33.20;19.27;;;;;;;8.40;64.58;98619.63;5051820;28;20187;-90
2022/03/30 01:01:55;;;;;;;34.47;18.80;;;;;;;9.58;64.32;98807.66;5057774;28;20193;-91
2022/03/30 01:04:21;;;;;;;31.77;16.40;;;;;;;5.90;64.34;98190.72;5058442;28;20557;-90
2022/03/30 01:06:47;;;;;;;22.80;14.23;;;;;;;8.47;64.11;98598.88;5056462;28;20165;-91
2022/03/30 01:09:12;;;;;;;22.97;14.00;;;;;;;6.74;64.21;98306.47;5036021;28;20170;-90
2022/03/30 01:11:37;;;;;;;24.07;14.67;;;;;;;6.49;64.12;98283.63;5035807;28;20169;-89
2022/03/30 01:14:04;;;;;;;26.80;14.00;;;;;;;9.40;64.26;98777.47;5037643;28;20223;-90
2022/03/30 01:16:30;;;;;;;23.87;13.50;;;;;;;9.42;64.87;98773.38;5054837;28;20172;-90
2022/03/30 01:19:07;;;;;;;24.03;14.17;;;;;;;9.48;63.98;98783.69;5028781;28;20221;-89
2022/03/30 01:21:39;;;;;;;23.87;13.87;;;;;;;7.46;63.63;98399.16;5023602;28;20212;-89
2022/03/30 01:24:06;;;;;;;29.77;14.87;;;;;;;9.51;64.25;98761.06;5035391;28;20200;-89
2022/03/30 01:26:32;;;;;;;24.43;14.60;;;;;;;7.45;63.43;98455.34;5053601;28;20165;-88
2022/03/30 01:28:58;;;;;;;28.30;14.80;;;;;;;9.53;63.84;98746.84;5035918;28;20169;-90
2022/03/30 01:34:09;;;;;;;29.17;15.03;;;;;;;8.93;64.08;98644.38;5053762;28;20161;-88
2022/03/30 01:36:37;;;;;;;33.03;16.90;;;;;;;9.75;63.46;98782.19;5035788;28;20174;-88
2022/03/30 01:39:04;;;;;;;35.93;18.00;;;;;;;9.65;63.98;98782.66;5035054;28;20165;-88
2022/03/30 01:41:30;;;;;;;29.10;16.23;;;;;;;9.68;64.64;98810.56;5045109;28;20166;-90
2022/03/30 01:43:56;;;;;;;34.17;17.90;;;;;;;8.28;63.85;98553.59;5035195;28;20201;-90
2022/03/30 01:46:23;;;;;;;31.03;16.13;;;;;;;6.40;64.58;98238.03;5021246;28;20177;-89
2022/03/30 01:48:49;;;;;;;27.90;16.33;;;;;;;9.06;64.68;98666.78;5019009;28;20170;-89
2022/03/30 01:51:15;;;;;;;28.93;15.00;;;;;;;8.50;65.30;98581.34;5049465;28;20193;-90
2022/03/30 01:53:41;;;;;;;33.17;18.03;;;;;;;7.68;64.34;98429.41;5057145;28;20184;-89
2022/03/30 01:56:06;;;;;;;34.37;18.23;;;;;;;7.72;63.62;98461.47;5055630;28;20172;-89
2022/03/30 01:58:32;;;;;;;36.53;18.00;;;;;;;9.59;63.86;98797.59;5056767;28;20163;-89
2022/03/30 02:00:57;;;;;;;36.23;18.47;;;;;;;6.24;64.06;98281.75;5037650;28;20165;-89
2022/03/30 02:03:23;;;;;;;44.37;19.07;;;;;;;6.88;64.51;98379.97;5055637;28;20665;-88
2022/03/30 02:05:48;;;;;;;34.80;18.00;;;;;;;7.09;64.92;98421.97;5055487;28;20220;-90
2022/03/30 02:08:14;;;;;;;32.67;18.33;;;;;;;9.29;65.29;98791.38;5038834;28;20271;-89
2022/03/30 02:10:39;;;;;;;37.10;16.90;;;;;;;8.01;65.82;98590.28;5062411;28;20169;-87
2022/03/30 02:13:05;;;;;;;33.20;16.73;;;;;;;9.20;65.85;98813.75;5049905;28;20175;-88
2022/03/30 02:15:31;;;;;;;32.00;16.30;;;;;;;7.74;67.21;98569.88;5058605;28;20201;-88
2022/03/30 02:17:59;;;;;;;44.07;16.87;;;;;;;6.93;66.81;98466.56;5043112;28;20225;-88
2022/03/30 02:20:25;;;;;;;37.63;17.33;;;;;;;8.75;66.81;98750.53;5047736;28;20177;-91
2022/03/30 02:22:51;;;;;;;40.73;17.13;;;;;;;8.87;66.91;98781.28;5063585;28;20169;-89
2022/03/30 02:25:16;;;;;;;31.70;17.27;;;;;;;8.01;66.51;98655.78;5048953;28;20286;-88
2022/03/30 02:27:42;;;;;;;41.73;21.50;;;;;;;6.64;66.72;98427.59;5052557;28;20189;-89
2022/03/30 02:30:08;;;;;;;45.97;20.80;;;;;;;6.34;67.81;98409.53;5069879;28;20165;-87
2022/03/30 02:32:36;;;;;;;37.97;20.13;;;;;;;6.74;68.74;98501.75;5051041;28;20184;-89
2022/03/30 02:35:02;;;;;;;38.27;19.43;;;;;;;8.53;69.20;98803.44;5062025;28;20189;-90
2022/03/30 02:37:28;;;;;;;37.30;17.57;;;;;;;8.51;69.28;98811.75;5062497;28;20161;-89
2022/03/30 02:39:53;;;;;;;33.13;18.57;;;;;;;5.83;69.81;98366.97;5058969;28;20169;-89
2022/03/30 02:42:18;;;;;;;40.50;20.23;;;;;;;8.52;69.64;98815.97;5064934;28;20166;-88
2022/03/30 02:44:44;;;;;;;42.47;23.43;;;;;;;7.86;68.53;98718.13;5060144;28;20201;-88
2022/03/30 02:47:09;;;;;;;35.37;18.73;;;;;;;8.51;69.50;98797.47;5039996;28;20625;-89
2022/03/30 02:49:35;;;;;;;38.70;19.43;;;;;;;6.75;69.85;98516.94;5041275;28;20222;-89
2022/03/30 02:52:01;;;;;;;36.97;17.97;;;;;;;6.52;69.93;98479.84;5056551;28;20231;-89
2022/03/30 02:54:27;;;;;;;38.53;18.40;;;;;;;6.28;70.72;98473.72;5037717;28;20165;-89
2022/03/30 02:56:52;;;;;;;34.10;18.63;;;;;;;8.25;71.51;98790.41;5053752;28;20173;-89
2022/03/30 02:59:18;;;;;;;38.73;18.60;;;;;;;6.81;70.29;98549.03;5055542;28;20165;-90
2022/03/30 03:01:43;;;;;;;37.40;18.73;;;;;;;6.90;70.17;98534.34;5038366;28;20161;-88
2022/03/30 03:04:08;;;;;;;35.83;18.33;;;;;;;8.30;71.54;98819.25;5036437;28;20189;-88
2022/03/30 03:06:34;;;;;;;38.70;17.90;;;;;;;5.88;71.66;98408.25;5036640;28;20256;-88
2022/03/30 03:08:59;;;;;;;36.70;18.23;;;;;;;8.23;71.65;98812.19;5056356;28;20216;-91
2022/03/30 03:11:25;;;;;;;38.97;19.23;;;;;;;8.30;71.07;98804.13;5047294;28;20162;-88
2022/03/30 03:13:51;;;;;;;44.47;21.90;;;;;;;6.28;71.33;98459.50;5047197;28;20157;-88
2022/03/30 03:16:18;;;;;;;44.03;19.90;;;;;;;6.72;70.23;98536.06;5067959;28;20226;-88
2022/03/30 03:18:44;;;;;;;39.57;18.80;;;;;;;5.79;70.05;98386.06;5042305;28;21100;-88
2022/03/30 03:21:09;;;;;;;39.80;18.50;;;;;;;8.19;69.14;98800.25;5058770;28;20408;-88
2022/03/30 03:23:34;;;;;;;32.93;17.70;;;;;;;6.85;69.41;98586.97;5039669;28;20198;-88
2022/03/30 03:26:00;;;;;;;31.40;17.53;;;;;;;6.19;69.32;98496.78;5038208;28;20172;-88
2022/03/30 03:28:25;;;;;;;30.87;17.67;;;;;;;5.46;69.45;98378.63;5038738;28;20197;-88
2022/03/30 03:30:51;;;;;;;31.07;16.07;;;;;;;4.53;69.50;98238.75;5055735;28;20256;-89
2022/03/30 03:33:17;;;;;;;39.13;19.47;;;;;;;7.65;70.97;98801.19;5037828;28;20657;-87
2022/03/30 03:35:43;;;;;;;37.90;18.90;;;;;;;6.21;71.43;98555.50;5037637;28;20176;-88
2022/03/30 03:38:09;;;;;;;40.37;19.83;;;;;;;6.22;72.08;98574.81;5056513;28;20395;-90
2022/03/30 03:40:35;;;;;;;42.93;20.57;;;;;;;7.58;72.10;98805.09;5060644;28;20173;-87
2022/03/30 03:43:01;;;;;;;45.57;21.33;;;;;;;6.76;72.71;98691.31;5040915;28;20248;-88
2022/03/30 03:45:27;;;;;;;43.10;22.83;;;;;;;5.70;72.22;98480.19;5055486;28;20448;-87
2022/03/30 03:47:53;;;;;;;41.30;21.90;;;;;;;6.19;72.22;98572.16;5056732;28;20557;-88
2022/03/30 03:50:19;;;;;;;46.17;21.37;;;;;;;7.51;73.03;98810.66;5039460;28;20538;-88
2022/03/30 03:52:45;;;;;;;37.83;19.83;;;;;;;5.29;72.86;98460.63;5057231;28;20571;-88
2022/03/30 03:55:11;;;;;;;41.00;19.13;;;;;;;6.39;73.40;98679.53;5059354;28;20487;-89
2022/03/30 03:57:38;;;;;;;42.40;20.70;;;;;;;7.24;73.71;98836.19;5060741;28;20407;-87
2022/03/30 04:00:04;;;;;;;42.33;21.20;;;;;;;6.66;73.80;98727.75;5053370;28;20431;-87
2022/03/30 04:02:29;;;;;;;37.87;19.53;;;;;;;5.84;73.60;98562.94;5051460;28;20408;-89
2022/03/30 04:04:55;;;;;;;43.90;20.77;;;;;;;7.32;74.35;98828.22;5039838;28;20447;-89
2022/03/30 04:07:20;;;;;;;44.87;20.37;;;;;;;6.74;74.11;98713.88;5054729;28;20235;-89
2022/03/30 04:09:46;;;;;;;38.90;19.13;;;;;;;5.27;74.05;98437.13;5052467;28;20165;-89
2022/03/30 04:12:11;;;;;;;47.13;21.47;;;;;;;5.67;73.68;98505.13;5037338;28;20245;-89
2022/03/30 04:14:37;;;;;;;42.87;20.63;;;;;;;5.54;72.46;98465.19;5055277;28;20177;-88
2022/03/30 04:17:02;;;;;;;41.60;20.63;;;;;;;7.62;72.99;98786.81;5037123;28;20782;-89
2022/03/30 04:19:27;;;;;;;45.73;21.77;;;;;;;6.31;72.73;98595.38;5038873;28;20173;-87
2022/03/30 04:21:53;;;;;;;42.53;20.57;;;;;;;7.78;72.91;98822.75;5039011;28;20204;-89
2022/03/30 04:24:18;;;;;;;42.30;22.17;;;;;;;7.56;71.92;98768.91;5038666;28;20193;-87
2022/03/30 04:26:44;;;;;;;42.33;20.53;;;;;;;6.53;71.77;98560.38;5040559;28;20169;-89
2022/03/30 04:29:09;;;;;;;77.47;25.80;;;;;;;7.91;71.23;98772.13;5048035;28;20272;-87
2022/03/30 04:31:35;;;;;;;78.67;24.03;;;;;;;5.92;70.91;98430.22;5052284;28;20181;-87
2022/03/30 04:34:00;;;;;;;69.90;24.63;;;;;;;6.37;70.63;98515.19;5043339;28;20185;-88
2022/03/30 04:36:26;;;;;;;66.73;27.03;;;;;;;7.79;70.49;98751.44;5057200;28;20177;-89
2022/03/30 04:38:52;;;;;;;87.30;35.53;;;;;;;7.21;69.88;98615.41;5081665;28;20214;-88
2022/03/30 04:41:17;;;;;;;64.57;29.10;;;;;;;8.41;69.46;98813.00;5055956;28;20177;-88
2022/03/30 04:43:43;;;;;;;57.73;27.23;;;;;;;6.28;69.09;98459.50;5042440;28;20208;-89
2022/03/30 04:46:08;;;;;;;65.13;27.00;;;;;;;6.61;69.22;98486.94;5046876;28;20231;-88
2022/03/30 04:48:37;;;;;;;59.13;24.77;;;;;;;8.64;69.05;98817.38;5050193;28;20181;-88
2022/03/30 04:51:03;;;;;;;54.93;25.67;;;;;;;8.51;69.10;98816.78;5067219;28;20252;-89
2022/03/30 04:53:29;;;;;;;50.87;27.07;;;;;;;7.94;68.93;98740.34;5036604;28;20208;-88
2022/03/30 04:55:54;;;;;;;55.90;26.53;;;;;;;7.13;68.87;98616.75;5053961;28;20189;-88
2022/03/30 04:58:20;;;;;;;55.83;27.03;;;;;;;7.98;68.31;98756.47;5051908;28;20625;-87
2022/03/30 05:00:45;;;;;;;47.87;25.53;;;;;;;8.18;68.47;98801.06;5033933;28;20189;-89
2022/03/30 05:03:11;;;;;;;63.77;31.50;;;;;;;6.30;69.09;98449.53;5034842;28;20212;-89
2022/03/30 05:05:36;;;;;;;41.13;22.27;;;;;;;6.52;69.17;98515.03;5053450;28;20248;-89
2022/03/30 05:08:02;;;;;;;43.10;21.53;;;;;;;8.59;68.83;98828.06;5051819;28;20189;-89
2022/03/30 05:10:28;;;;;;;46.47;23.47;;;;;;;7.05;67.39;98570.25;5053501;28;20225;-89
2022/03/30 05:12:54;;;;;;;42.90;21.53;;;;;;;8.77;67.10;98838.91;5038454;28;20178;-88
2022/03/30 05:15:23;;;;;;;51.50;23.10;;;;;;;7.58;66.67;98611.16;5051725;28;20213;-88
2022/03/30 05:17:48;;;;;;;53.30;23.47;;;;;;;6.98;65.54;98473.50;5051306;28;20221;-89
2022/03/30 05:20:16;;;;;;;85.13;32.97;;;;;;;8.88;65.54;98777.97;5027445;28;20192;-87
2022/03/30 05:22:42;;;;;;;72.53;30.27;;;;;;;8.91;64.96;98749.47;5041397;28;20191;-87
2022/03/30 05:25:09;;;;;;;62.93;27.77;;;;;;;7.98;64.78;98577.53;5067160;28;20700;-89
2022/03/30 05:27:34;;;;;;;54.20;24.77;;;;;;;6.85;63.93;98364.75;5043891;28;20186;-89
2022/03/30 05:30:02;;;;;;;55.30;23.80;;;;;;;6.33;63.17;98272.09;5019958;28;20221;-89
2022/03/30 05:32:28;;;;;;;53.03;23.77;;;;;;;8.35;63.99;98595.03;5044435;28;20253;-89
2022/03/30 05:34:54;;;;;;;39.70;21.20;;;;;;;9.62;63.96;98827.16;5066831;28;20177;-90
2022/03/30 05:37:19;;;;;;;42.80;21.10;;;;;;;9.49;65.47;98851.09;5050341;28;20193;-89
2022/03/30 05:39:45;;;;;;;45.60;20.87;;;;;;;6.81;64.84;98370.47;5051953;28;20185;-91
2022/03/30 05:42:14;;;;;;;39.30;20.87;;;;;;;7.78;64.77;98496.13;5033426;28;20256;-91
2022/03/30 05:44:40;;;;;;;42.33;20.80;;;;;;;9.48;65.83;98776.09;5042390;28;20196;-88
2022/03/30 05:47:07;;;;;;;36.90;19.53;;;;;;;7.69;67.45;98498.28;5048317;28;20177;-89
2022/03/30 05:49:36;;;;;;;37.50;19.27;;;;;;;9.23;66.67;98731.38;5055706;28;20181;-90
2022/03/30 05:52:03;;;;;;;42.93;20.73;;;;;;;8.71;65.97;98642.72;5045424;28;20188;-89
2022/03/30 05:54:28;;;;;;;38.57;18.57;;;;;;;9.39;64.76;98718.50;5034133;28;20188;-90
2022/03/30 05:57:02;;;;;;;38.50;18.90;;;;;;;10.04;65.52;98842.28;5045565;28;20211;-90
2022/03/30 05:59:32;;;;;;;34.70;18.13;;;;;;;10.12;64.50;98831.56;5030283;28;20196;-89
2022/03/30 06:01:59;;;;;;;35.23;19.47;;;;;;;8.18;64.86;98490.97;5051311;28;20181;-92
2022/03/30 06:04:25;;;;;;;30.17;17.77;;;;;;;10.32;64.70;98840.75;5036387;28;20230;-91
2022/03/30 06:06:51;;;;;;;40.50;19.60;;;;;;;8.35;63.30;98464.75;5045831;28;20182;-90
2022/03/30 06:09:17;;;;;;;35.40;20.17;;;;;;;8.75;62.00;98517.53;5047924;28;20671;-89
2022/03/30 06:11:43;;;;;;;38.03;20.13;;;;;;;9.17;60.88;98564.53;5028017;28;20181;-91
2022/03/30 06:14:08;;;;;;;49.50;22.63;;;;;;;10.28;60.17;98743.66;5048166;28;20279;-92
2022/03/30 06:16:34;;;;;;;43.27;22.00;;;;;;;8.74;60.14;98466.22;5057924;28;20212;-92
2022/03/30 06:19:00;;;;;;;42.27;22.63;;;;;;;11.27;59.25;98826.25;5056335;28;20326;-90
2022/03/30 06:21:26;;;;;;;56.57;26.57;;;;;;;8.71;58.19;98346.66;5049953;28;20292;-88
2022/03/30 06:23:51;;;;;;;58.37;26.77;;;;;;;9.49;58.03;98446.91;5033916;28;20211;-91
2022/03/30 06:26:17;;;;;;;64.07;27.73;;;;;;;11.87;57.61;98817.16;5052078;28;20196;-90
2022/03/30 06:28:42;;;;;;;57.50;26.67;;;;;;;11.86;56.58;98785.00;5045463;28;20188;-91
2022/03/30 06:31:09;;;;;;;57.00;27.20;;;;;;;12.21;56.21;98839.28;5031972;28;20217;-89
2022/03/30 06:33:35;;;;;;;54.97;27.67;;;;;;;10.98;55.59;98596.56;5058172;28;20298;-89
2022/03/30 06:36:00;;;;;;;50.43;26.73;;;;;;;10.73;54.95;98541.81;5027059;28;20189;-89
2022/03/30 06:38:26;;;;;;;56.60;26.53;;;;;;;10.35;54.00;98442.03;5028555;28;20185;-89
2022/03/30 06:40:52;;;;;;;51.57;26.37;;;;;;;11.64;54.76;98666.03;5043806;28;20223;-91
2022/03/30 06:43:18;;;;;;;52.60;26.33;;;;;;;10.81;54.16;98489.75;5025946;28;20193;-88
2022/03/30 06:45:46;;;;;;;49.17;26.03;;;;;;;11.11;53.72;98505.78;5022433;28;20196;-88
2022/03/30 06:48:11;;;;;;;48.43;26.57;;;;;;;11.61;52.78;98592.41;5035228;28;20237;-87
2022/03/30 06:50:37;;;;;;;49.30;26.20;;;;;;;12.55;52.41;98729.34;5047746;28;20653;-88
2022/03/30 06:53:05;;;;;;;52.93;26.43;;;;;;;11.47;51.84;98508.41;5047135;28;20658;-88
2022/03/30 06:55:31;;;;;;;46.63;24.67;;;;;;;12.35;51.72;98629.84;5036964;28;20189;-89
2022/03/30 06:57:56;;;;;;;54.27;26.27;;;;;;;13.01;51.93;98709.31;5032299;28;20186;-89
2022/03/30 07:00:21;;;;;;;52.07;26.43;;;;;;;12.11;51.39;98527.78;5037886;28;20283;-88
2022/03/30 07:02:47;;;;;;;53.77;25.33;;;;;;;12.29;51.16;98529.06;5046991;28;20241;-88
2022/03/30 07:05:12;;;;;;;50.83;26.47;;;;;;;14.13;50.28;98849.13;5048066;28;20254;-87
2022/03/30 07:10:23;;;;;;;49.47;25.53;;;;;;;14.00;49.42;98750.44;5063219;28;20192;-86
2022/03/30 07:12:51;;;;;;;52.07;29.10;;;;;;;14.14;49.06;98731.22;5076450;28;20160;-89
2022/03/30 07:15:18;;;;;;;51.57;24.57;;;;;;;12.58;47.94;98460.31;5051465;28;20185;-88
2022/03/30 07:17:52;;;;;;;42.20;23.57;;;;;;;15.03;47.57;98821.09;5053273;28;20619;-88
2022/03/30 07:20:19;;;;;;;50.87;24.57;;;;;;;15.20;47.13;98830.75;5043477;28;20567;-88
2022/03/30 07:22:47;;;;;;;48.03;23.37;;;;;;;15.43;46.48;98838.78;5018032;28;20178;-87
2022/03/30 07:25:14;;;;;;;42.27;23.67;;;;;;;15.57;45.90;98834.78;5024740;28;20259;-88
2022/03/30 07:27:41;;;;;;;52.23;24.83;;;;;;;14.28;45.81;98566.84;5041767;28;20243;-88
2022/03/30 07:30:07;;;;;;;48.67;23.20;;;;;;;15.03;44.70;98632.47;5024875;28;20286;-89
2022/03/30 07:32:34;;;;;;;49.33;24.27;;;;;;;15.02;45.22;98663.91;5054364;28;20177;-89
2022/03/30 07:34:59;;;;;;;53.27;24.10;;;;;;;15.36;44.31;98645.66;5056311;28;20188;-91
2022/03/30 07:37:25;;;;;;;44.90;23.63;;;;;;;14.54;43.06;98440.75;5044095;28;20263;-88
2022/03/30 07:39:51;;;;;;;52.03;24.27;;;;;;;14.91;42.85;98484.53;5043266;28;20235;-89
2022/03/30 07:42:16;;;;;;;46.80;23.57;;;;;;;17.04;43.04;98806.72;5026090;28;20193;-89
2022/03/30 07:44:42;;;;;;;45.40;22.60;;;;;;;16.10;42.25;98612.47;5032592;28;20208;-90
2022/03/30 07:47:07;;;;;;;38.97;21.57;;;;;;;15.94;41.73;98535.78;5044443;28;20280;-86
2022/03/30 07:49:32;;;;;;;40.37;21.13;;;;;;;17.73;40.85;98791.88;5042057;28;20169;-88
2022/03/30 07:52:03;;;;;;;38.23;21.73;;;;;;;17.17;40.92;98653.38;5035844;28;20252;-89
2022/03/30 07:54:28;;;;;;;38.13;20.00;;;;;;;17.54;39.71;98652.72;5032691;28;20641;-87
2022/03/30 07:56:54;;;;;;;40.53;20.97;;;;;;;16.01;39.80;98438.81;5048578;28;20176;-88
2022/03/30 07:59:20;;;;;;;36.50;20.37;;;;;;;16.32;40.30;98519.88;5066132;28;20181;-88
2022/03/30 08:01:46;;;;;;;34.03;20.73;;;;;;;18.27;40.05;98820.28;5032171;28;20256;-88
2022/03/30 08:04:11;;;;;;;35.30;19.50;;;;;;;18.50;39.51;98825.53;5041123;28;20205;-88
2022/03/30 08:06:37;;;;;;;27.33;17.60;;;;;;;17.23;38.73;98609.88;5040711;28;20213;-88
2022/03/30 08:09:03;;;;;;;33.17;19.60;;;;;;;17.56;39.31;98661.25;5030950;28;20201;-87
2022/03/30 08:11:29;;;;;;;31.00;19.07;;;;;;;18.03;38.80;98744.22;5039537;28;20192;-88
2022/03/30 08:13:56;;;;;;;37.50;20.17;;;;;;;17.13;39.65;98569.78;5034866;28;20235;-90
2022/03/30 08:16:22;;;;;;;39.10;20.97;;;;;;;17.51;39.60;98557.97;5040446;28;20662;-90
2022/03/30 08:18:48;;;;;;;39.00;20.10;;;;;;;18.87;38.96;98804.22;5023422;28;20221;-87
2022/03/30 08:23:58;;;;;;;39.57;20.73;;;;;;;18.08;40.23;98763.00;5046201;28;20692;-87
2022/03/30 08:26:23;;;;;;;41.90;20.60;;;;;;;18.27;39.71;98728.03;5047734;28;20264;-88
2022/03/30 08:28:49;;;;;;;38.73;20.30;;;;;;;18.85;39.39;98836.72;5051807;28;20166;-88
2022/03/30 08:31:14;;;;;;;39.90;19.90;;;;;;;18.93;39.21;98834.16;5042357;28;20245;-88
2022/03/30 08:33:40;;;;;;;33.97;19.50;;;;;;;19.26;38.22;98762.31;5037034;28;20180;-89
2022/03/30 08:36:07;;;;;;;34.27;19.53;;;;;;;18.77;38.49;98682.00;5042575;28;20218;-89
2022/03/30 08:38:33;;;;;;;32.50;19.20;;;;;;;19.46;38.11;98780.31;5022419;28;20820;-89
2022/03/30 08:40:59;;;;;;;34.77;19.13;;;;;;;18.50;38.14;98597.41;5044207;28;20213;-87
2022/03/30 08:43:29;;;;;;;33.73;18.97;;;;;;;19.81;37.43;98794.78;5048352;28;20190;-87
2022/03/30 08:45:58;;;;;;;31.47;18.50;;;;;;;19.12;37.01;98628.06;5046520;28;20173;-90
2022/03/30 08:48:23;;;;;;;35.10;18.57;;;;;;;17.69;36.99;98430.91;5058947;28;20173;-89
2022/03/30 08:50:50;;;;;;;32.80;18.33;;;;;;;18.26;37.44;98564.94;5023581;28;20196;-90
2022/03/30 08:53:16;;;;;;;42.10;19.17;;;;;;;17.87;37.79;98490.66;5033619;28;20253;-89
2022/03/30 08:55:42;;;;;;;35.00;19.10;;;;;;;19.93;37.22;98766.47;5044326;28;20200;-89
2022/03/30 08:58:08;;;;;;;38.20;18.67;;;;;;;18.59;36.24;98482.03;5023877;28;20798;-88
2022/03/30 09:00:34;;;;;;;32.20;18.13;;;;;;;19.62;35.78;98603.06;5047495;28;20182;-89
2022/03/30 09:03:01;;;;;;;32.77;18.73;;;;;;;20.50;35.90;98783.38;5038499;28;20181;-90
2022/03/30 09:05:29;;;;;;;29.43;17.73;;;;;;;18.68;36.32;98495.66;5045073;28;20205;-88
2022/03/30 09:08:06;;;;;;;30.00;17.40;;;;;;;20.16;35.29;98681.53;5025886;28;20214;-89
2022/03/30 09:10:31;;;;;;;28.70;17.57;;;;;;;20.77;35.67;98776.31;5034506;28;20615;-90
2022/03/30 09:12:57;;;;;;;30.97;16.73;;;;;;;19.06;36.46;98580.22;5052408;28;20185;-90
2022/03/30 09:15:23;;;;;;;34.00;17.67;;;;;;;18.54;36.03;98509.41;5029354;28;20565;-89
2022/03/30 09:17:49;;;;;;;32.20;17.23;;;;;;;20.66;35.57;98763.53;5058943;28;20970;-90
2022/03/30 09:20:19;;;;;;;29.47;16.53;;;;;;;21.16;34.44;98745.16;5035113;28;20213;-89
2022/03/30 09:22:51;;;;;;;33.83;17.20;;;;;;;21.56;34.26;98745.63;5038361;28;20174;-87
2022/03/30 09:25:17;;;;;;;31.60;17.53;;;;;;;20.50;34.56;98572.50;5066691;28;20196;-88
2022/03/30 09:27:44;;;;;;;32.80;17.60;;;;;;;20.02;34.31;98440.09;5046612;28;20165;-88
2022/03/30 09:30:12;;;;;;;27.27;16.50;;;;;;;20.75;33.47;98502.78;5065637;28;20174;-88
2022/03/30 09:32:43;;;;;;;28.03;16.60;;;;;;;20.48;32.94;98443.09;5059476;28;20182;-89
2022/03/30 09:35:29;;;;;;;30.00;17.30;;;;;;;22.19;33.65;98721.69;5073845;28;20252;-90
2022/03/30 09:38:15;;;;;;;30.30;15.73;;;;;;;20.29;33.74;98439.03;5049175;28;20170;-90
2022/03/30 09:40:49;;;;;;;29.03;16.33;;;;;;;19.34;34.95;98386.72;5048466;28;20193;-89
2022/03/30 09:43:27;;;;;;;31.27;15.67;;;;;;;21.13;33.67;98555.56;5028132;28;20184;-88
2022/03/30 09:46:02;;;;;;;28.67;14.77;;;;;;;22.01;33.54;98701.28;5029439;28;20170;-90
2022/03/30 09:48:29;;;;;;;24.90;15.03;;;;;;;22.26;33.58;98696.66;5048333;28;20178;-92
2022/03/30 09:50:57;;;;;;;24.93;14.20;;;;;;;19.53;32.69;98182.06;5055175;28;20189;-89
2022/03/30 09:53:25;;;;;;;23.43;14.53;;;;;;;19.21;33.82;98258.53;5044193;28;20170;-90
2022/03/30 09:56:04;;;;;;;22.40;14.63;;;;;;;20.21;33.57;98384.25;5050281;28;20622;-90
2022/03/30 09:58:32;;;;;;;22.70;14.17;;;;;;;21.49;33.16;98510.44;5048408;28;20165;-89
2022/03/30 10:01:22;;;;;;;26.37;15.10;;;;;;;18.77;34.57;98253.75;5047970;28;20636;-90
2022/03/30 10:03:59;;;;;;;25.77;14.30;;;;;;;21.46;34.11;98617.81;5048346;28;20197;-90
2022/03/30 10:06:36;;;;;;;20.63;14.33;;;;;;;21.90;32.42;98576.88;5051065;28;20184;-90
2022/03/30 10:09:03;;;;;;;24.80;14.40;;;;;;;22.24;33.34;98670.03;5067706;28;20195;-92
2022/03/30 10:11:29;;;;;;;23.27;13.73;;;;;;;19.56;32.89;98174.34;5068863;28;20535;-89
2022/03/30 10:14:00;;;;;;;22.63;13.53;;;;;;;19.98;32.09;98206.34;5047751;28;20169;-88
2022/03/30 10:16:27;;;;;;;23.60;14.20;;;;;;;20.10;33.18;98380.09;5052136;28;20260;-89
2022/03/30 10:18:54;;;;;;;25.17;14.50;;;;;;;19.29;33.19;98225.94;5074588;28;20246;-88
2022/03/30 10:21:57;;;;;;;28.80;13.97;;;;;;;21.70;33.37;98654.41;5038809;28;20194;-87
2022/03/30 10:24:56;;;;;;;27.93;13.40;;;;;;;21.60;32.89;98660.56;5062748;28;20196;-89
2022/03/30 10:27:48;;;;;;;24.10;13.83;;;;;;;22.53;32.12;98682.47;5065722;28;20187;-90
2022/03/30 10:30:14;;;;;;;21.40;13.73;;;;;;;21.67;31.78;98443.19;5057781;28;20191;-89
2022/03/30 10:32:40;;;;;;;23.10;13.33;;;;;;;22.05;31.32;98490.72;5052629;28;20286;-91
2022/03/30 10:35:09;;;;;;;27.00;13.23;;;;;;;20.65;30.72;98254.31;5035567;28;20165;-92
2022/03/30 10:37:42;;;;;;;23.73;13.83;;;;;;;24.05;29.52;98669.31;5045768;28;20181;-90
2022/03/30 10:40:10;;;;;;;23.83;13.90;;;;;;;24.05;30.16;98658.13;5029688;28;20189;-91
2022/03/30 10:42:47;;;;;;;21.80;13.87;;;;;;;24.12;29.69;98653.72;5056059;28;20200;-90
2022/03/30 10:45:25;;;;;;;21.73;13.20;;;;;;;23.15;31.28;98650.47;5036862;28;20193;-89
2022/03/30 10:48:09;;;;;;;20.93;13.77;;;;;;;22.68;30.56;98569.59;5038552;28;20193;-90
2022/03/30 10:50:36;;;;;;;20.70;12.83;;;;;;;22.82;31.20;98637.31;5036627;28;20299;-88
2022/03/30 10:53:02;;;;;;;21.60;13.03;;;;;;;21.87;31.31;98560.59;5035888;28;20877;-78
2022/03/30 10:55:29;;;;;;;19.97;13.20;;;;;;;21.46;30.88;98489.88;5052807;28;20161;-79
2022/03/30 10:58:03;;;;;;;28.77;13.13;;;;;;;22.74;30.73;98626.25;5053263;28;20181;-80
2022/03/30 11:00:37;;;;;;;23.23;13.07;;;;;;;22.14;31.23;98606.59;5048572;28;20681;-78
2022/03/30 11:03:07;;;;;;;23.57;13.43;;;;;;;22.17;31.58;98603.94;5022678;28;20189;-79
2022/03/30 11:05:33;;;;;;;26.10;14.00;;;;;;;21.04;31.39;98374.66;5051706;28;20209;-78
2022/03/30 11:07:59;;;;;;;26.50;14.10;;;;;;;22.80;31.24;98607.22;5053142;28;20174;-78
2022/03/30 11:10:27;;;;;;;23.10;13.40;;;;;;;22.05;31.14;98467.53;5052043;28;20183;-78
2022/03/30 11:13:22;;;;;;;23.57;13.40;;;;;;;21.77;30.51;98406.13;5053776;28;20181;-80
2022/03/30 11:15:59;;;;;;;24.37;13.23;;;;;;;22.57;29.75;98579.22;5053552;28;20177;-78
2022/03/30 11:18:26;;;;;;;22.60;13.37;;;;;;;22.82;29.79;98574.50;5051751;28;20217;-79
2022/03/30 11:21:16;;;;;;;22.87;14.27;;;;;;;22.72;29.38;98566.06;5052321;28;20701;-80
2022/03/30 11:24:07;;;;;;;25.20;13.70;;;;;;;22.50;29.69;98563.84;5054386;28;20181;-80
2022/03/30 11:26:50;;;;;;;24.50;13.67;;;;;;;22.70;29.47;98556.66;5072479;28;20214;-79
2022/03/30 11:29:49;;;;;;;21.80;12.83;;;;;;;22.64;29.44;98510.31;5070434;28;20176;-79
2022/03/30 11:32:23;;;;;;;22.07;13.57;;;;;;;23.66;29.38;98542.66;4943445;28;20359;-79